createdAt,value
2022-10-21T00:00:51.012Z,13.40
2022-10-21T00:03:19.103Z,13.40
2022-10-21T00:05:47.075Z,13.30
2022-10-21T00:08:14.960Z,13.30
2022-10-21T00:10:42.974Z,13.40
2022-10-21T00:13:12.700Z,13.40
2022-10-21T00:15:40.544Z,13.40
2022-10-21T00:18:08.416Z,13.40
2022-10-21T00:20:39.532Z,13.40
2022-10-21T00:23:07.736Z,13.40
2022-10-21T00:25:35.561Z,13.50
2022-10-21T00:28:03.403Z,13.50
2022-10-21T00:30:32.595Z,13.50
2022-10-21T00:33:02.987Z,13.50
2022-10-21T00:35:34.683Z,13.50
2022-10-21T00:38:02.642Z,13.50
2022-10-21T00:40:30.547Z,13.50
2022-10-21T00:42:58.352Z,13.50
2022-10-21T00:45:28.007Z,13.50
2022-10-21T00:48:02.957Z,13.50
2022-10-21T00:50:37.523Z,13.60
2022-10-21T00:53:11.786Z,13.60
2022-10-21T00:55:44.194Z,13.60
2022-10-21T00:58:12.289Z,13.60
2022-10-21T01:00:40.229Z,13.60
2022-10-21T01:03:09.816Z,13.60
2022-10-21T01:05:40.212Z,13.60
2022-10-21T01:08:08.122Z,13.70
2022-10-21T01:10:36.138Z,13.70
2022-10-21T01:13:16.141Z,13.70
2022-10-21T01:15:51.354Z,13.70
2022-10-21T01:18:28.386Z,13.70
2022-10-21T01:21:08.580Z,13.70
2022-10-21T01:24:12.508Z,13.70
2022-10-21T01:27:01.754Z,13.70
2022-10-21T01:29:49.836Z,13.70
2022-10-21T01:32:25.263Z,13.80
2022-10-21T01:34:58.838Z,13.80
2022-10-21T01:37:33.549Z,13.80
2022-10-21T01:40:06.840Z,13.80
2022-10-21T01:42:41.935Z,13.80
2022-10-21T01:45:15.592Z,13.90
2022-10-21T01:47:48.655Z,13.90
2022-10-21T01:50:21.950Z,13.90
2022-10-21T01:52:53.782Z,13.90
2022-10-21T01:55:24.043Z,13.90
2022-10-21T01:57:56.921Z,13.90
2022-10-21T02:03:00.788Z,13.90
2022-10-21T02:05:32.891Z,13.90
2022-10-21T02:08:00.760Z,14.00
2022-10-21T02:10:34.511Z,14.00
2022-10-21T02:13:05.211Z,14.00
2022-10-21T02:15:36.631Z,14.00
2022-10-21T02:18:08.386Z,14.00
2022-10-21T02:20:40.814Z,14.00
2022-10-21T02:23:12.310Z,13.90
2022-10-21T02:25:45.398Z,13.90
2022-10-21T02:28:14.435Z,13.90
2022-10-21T02:30:50.346Z,13.90
2022-10-21T02:33:25.007Z,13.90
2022-10-21T02:36:01.696Z,14.00
2022-10-21T02:38:34.009Z,14.00
2022-10-21T02:41:03.760Z,14.00
2022-10-21T02:43:36.130Z,14.00
2022-10-21T02:46:09.846Z,14.00
2022-10-21T02:48:40.993Z,13.90
2022-10-21T02:51:09.636Z,13.90
2022-10-21T02:53:38.296Z,13.90
2022-10-21T02:56:07.077Z,13.90
2022-10-21T02:58:35.211Z,13.90
2022-10-21T03:01:03.324Z,13.90
2022-10-21T03:03:31.367Z,13.90
2022-10-21T03:06:00.568Z,13.90
2022-10-21T03:08:28.806Z,13.90
2022-10-21T03:10:57.044Z,13.90
2022-10-21T03:13:25.304Z,13.90
2022-10-21T03:15:53.271Z,13.90
2022-10-21T03:18:21.121Z,13.90
2022-10-21T03:20:50.916Z,13.90
2022-10-21T03:23:21.004Z,13.90
2022-10-21T03:25:49.159Z,13.90
2022-10-21T03:28:18.649Z,13.90
2022-10-21T03:30:46.870Z,13.90
2022-10-21T03:33:17.317Z,13.80
2022-10-21T03:35:46.031Z,13.80
2022-10-21T03:38:17.491Z,13.80
2022-10-21T03:40:47.198Z,13.80
2022-10-21T03:43:18.453Z,13.80
2022-10-21T03:45:55.165Z,13.80
2022-10-21T03:48:28.389Z,13.80
2022-10-21T03:50:57.217Z,13.70
2022-10-21T03:53:42.426Z,13.70
2022-10-21T03:56:23.042Z,13.70
2022-10-21T03:58:57.809Z,13.70
2022-10-21T04:01:27.150Z,13.70
2022-10-21T04:03:55.145Z,13.60
2022-10-21T04:06:23.035Z,13.60
2022-10-21T04:08:50.928Z,13.60
2022-10-21T04:11:20.263Z,13.60
2022-10-21T04:13:48.331Z,13.50
2022-10-21T04:16:19.383Z,13.50
2022-10-21T04:18:47.310Z,13.50
2022-10-21T04:21:15.631Z,13.40
2022-10-21T04:23:43.809Z,13.40
2022-10-21T04:26:11.949Z,13.40
2022-10-21T04:28:41.125Z,13.40
2022-10-21T04:31:08.946Z,13.40
2022-10-21T04:33:36.771Z,13.40
2022-10-21T04:36:04.988Z,13.40
2022-10-21T04:38:32.861Z,13.40
2022-10-21T04:41:02.970Z,13.40
2022-10-21T04:43:31.305Z,13.40
2022-10-21T04:46:00.511Z,13.40
2022-10-21T04:48:28.380Z,13.40
2022-10-21T04:50:56.835Z,13.40
2022-10-21T04:53:24.702Z,13.40
2022-10-21T04:55:53.781Z,13.40
2022-10-21T04:58:22.715Z,13.40
2022-10-21T05:00:51.287Z,13.30
2022-10-21T05:03:21.289Z,13.30
2022-10-21T05:05:50.210Z,13.30
2022-10-21T05:08:18.060Z,13.30
2022-10-21T05:10:46.136Z,13.20
2022-10-21T05:13:14.043Z,13.20
2022-10-21T05:15:42.019Z,13.20
2022-10-21T05:18:09.846Z,13.10
2022-10-21T05:20:39.034Z,13.10
2022-10-21T05:23:06.850Z,13.10
2022-10-21T05:25:34.744Z,13.10
2022-10-21T05:28:02.736Z,13.10
2022-10-21T05:30:30.620Z,13.00
2022-10-21T05:32:58.450Z,13.00
2022-10-21T05:35:26.285Z,13.00
2022-10-21T05:37:55.444Z,13.00
2022-10-21T05:40:23.312Z,13.00
2022-10-21T05:42:51.319Z,13.00
2022-10-21T05:45:19.971Z,13.00
2022-10-21T05:47:47.824Z,13.00
2022-10-21T05:50:15.753Z,13.00
2022-10-21T05:52:43.594Z,12.90
2022-10-21T05:55:12.856Z,12.90
2022-10-21T05:57:40.907Z,12.90
2022-10-21T06:00:10.798Z,12.90
2022-10-21T06:02:39.194Z,12.90
2022-10-21T06:05:07.809Z,12.90
2022-10-21T06:07:36.247Z,12.90
2022-10-21T06:10:06.341Z,12.90
2022-10-21T06:12:35.730Z,12.80
2022-10-21T06:15:05.258Z,12.80
2022-10-21T06:17:33.170Z,12.80
2022-10-21T06:20:01.687Z,12.70
2022-10-21T06:22:29.836Z,12.70
2022-10-21T06:24:57.809Z,12.80
2022-10-21T06:27:26.439Z,12.80
2022-10-21T06:29:55.794Z,12.80
2022-10-21T06:32:23.759Z,12.70
2022-10-21T06:34:51.667Z,12.80
2022-10-21T06:37:19.747Z,12.70
2022-10-21T06:39:47.665Z,12.80
2022-10-21T06:42:15.939Z,12.80
2022-10-21T06:44:43.933Z,12.80
2022-10-21T06:47:13.466Z,12.80
2022-10-21T06:49:41.633Z,12.80
2022-10-21T06:52:11.311Z,12.80
2022-10-21T06:54:39.518Z,12.80
2022-10-21T06:57:08.016Z,12.90
2022-10-21T06:59:35.828Z,12.90
2022-10-21T07:02:03.996Z,13.00
2022-10-21T07:04:33.299Z,13.00
2022-10-21T07:07:01.285Z,13.00
2022-10-21T07:09:30.725Z,13.00
2022-10-21T07:11:58.659Z,13.00
2022-10-21T07:14:26.673Z,13.00
2022-10-21T07:16:54.539Z,12.90
2022-10-21T07:19:22.571Z,12.90
2022-10-21T07:21:52.026Z,12.90
2022-10-21T07:24:22.511Z,12.90
2022-10-21T07:26:51.487Z,13.00
2022-10-21T07:29:19.760Z,13.00
2022-10-21T07:31:47.884Z,13.00
2022-10-21T07:34:16.618Z,13.00
2022-10-21T07:36:47.889Z,13.00
2022-10-21T07:39:19.100Z,13.10
2022-10-21T07:41:50.295Z,13.10
2022-10-21T07:44:18.940Z,13.10
2022-10-21T07:46:47.266Z,13.10
2022-10-21T07:49:16.338Z,13.10
2022-10-21T07:51:45.970Z,13.10
2022-10-21T07:54:15.239Z,13.20
2022-10-21T07:56:46.819Z,13.20
2022-10-21T07:59:16.098Z,13.20
2022-10-21T08:01:45.757Z,13.20
2022-10-21T08:04:15.801Z,13.30
2022-10-21T08:06:44.494Z,13.30
2022-10-21T08:09:12.479Z,13.40
2022-10-21T08:11:40.461Z,13.40
2022-10-21T08:14:11.064Z,13.50
2022-10-21T08:16:39.286Z,13.50
2022-10-21T08:19:07.972Z,13.50
2022-10-21T08:21:37.392Z,13.60
2022-10-21T08:24:06.364Z,13.60
2022-10-21T08:26:34.808Z,13.60
2022-10-21T08:29:04.278Z,13.60
2022-10-21T08:31:33.785Z,13.60
2022-10-21T08:34:01.631Z,13.70
2022-10-21T08:36:29.542Z,13.70
2022-10-21T08:38:58.711Z,13.70
2022-10-21T08:41:41.059Z,13.70
2022-10-21T08:44:18.816Z,13.70
2022-10-21T08:46:54.392Z,13.70
2022-10-21T08:49:28.580Z,13.80
2022-10-21T08:52:03.437Z,13.80
2022-10-21T08:54:41.154Z,13.90
2022-10-21T08:57:11.375Z,13.90
2022-10-21T08:59:42.025Z,13.90
2022-10-21T09:02:29.959Z,13.90
2022-10-21T09:05:19.058Z,13.90
2022-10-21T09:07:55.824Z,13.90
2022-10-21T09:10:32.145Z,14.00
2022-10-21T09:13:08.111Z,14.00
2022-10-21T09:15:49.067Z,14.00
2022-10-21T09:18:31.901Z,14.10
2022-10-21T09:21:08.401Z,14.10
2022-10-21T09:23:50.094Z,14.10
2022-10-21T09:26:33.654Z,14.10
2022-10-21T09:29:03.797Z,14.10
2022-10-21T09:31:31.633Z,14.20
2022-10-21T09:34:04.756Z,14.20
2022-10-21T09:36:36.844Z,14.20
2022-10-21T09:39:11.541Z,14.30
2022-10-21T09:41:43.290Z,14.30
2022-10-21T09:44:17.435Z,14.30
2022-10-21T09:46:46.634Z,14.40
2022-10-21T09:52:14.290Z,14.40
2022-10-21T09:54:43.923Z,14.50
2022-10-21T09:57:15.438Z,14.50
2022-10-21T09:59:54.275Z,14.50
2022-10-21T10:02:29.422Z,14.50
2022-10-21T10:04:59.094Z,14.60
2022-10-21T10:07:35.027Z,14.70
2022-10-21T10:10:04.466Z,14.70
2022-10-21T10:12:32.328Z,14.70
2022-10-21T10:15:28.139Z,14.70
2022-10-21T10:17:58.827Z,14.80
2022-10-21T10:20:28.599Z,14.80
2022-10-21T10:23:11.030Z,14.80
2022-10-21T10:25:40.431Z,14.80
2022-10-21T10:28:21.422Z,14.80
2022-10-21T10:30:53.803Z,14.90
2022-10-21T10:33:24.901Z,14.90
2022-10-21T10:35:57.440Z,15.00
2022-10-21T10:38:31.299Z,15.00
2022-10-21T10:41:07.626Z,15.00
2022-10-21T10:43:42.349Z,15.10
2022-10-21T10:46:16.431Z,15.10
2022-10-21T10:48:47.757Z,15.20
2022-10-21T10:51:28.546Z,15.20
2022-10-21T10:54:16.362Z,15.30
2022-10-21T10:56:49.628Z,15.40
2022-10-21T10:59:27.964Z,15.40
2022-10-21T11:02:01.923Z,15.40
2022-10-21T11:04:36.065Z,15.40
2022-10-21T11:07:15.176Z,15.50
2022-10-21T11:09:43.263Z,15.50
2022-10-21T11:12:20.325Z,15.50
2022-10-21T11:14:52.653Z,15.50
2022-10-21T11:17:22.707Z,15.60
2022-10-21T11:19:57.920Z,15.60
2022-10-21T11:22:41.375Z,15.60
2022-10-21T11:25:20.545Z,15.60
2022-10-21T11:28:02.450Z,15.70
2022-10-21T11:30:39.115Z,15.70
2022-10-21T11:33:16.195Z,15.80
2022-10-21T11:35:57.690Z,15.80
2022-10-21T11:38:48.054Z,15.80
2022-10-21T11:41:28.195Z,15.90
2022-10-21T11:44:05.994Z,16.00
2022-10-21T11:46:48.811Z,16.10
2022-10-21T11:49:46.416Z,16.20
2022-10-21T11:52:27.382Z,16.30
2022-10-21T11:55:15.838Z,16.30
2022-10-21T11:57:52.769Z,16.40
2022-10-21T12:00:23.185Z,16.40
2022-10-21T12:03:26.037Z,16.40
2022-10-21T12:06:02.257Z,16.50
2022-10-21T12:08:37.214Z,16.50
2022-10-21T12:11:14.752Z,16.50
2022-10-21T12:13:46.867Z,16.50
2022-10-21T12:16:17.430Z,16.60
2022-10-21T12:18:48.384Z,16.70
2022-10-21T12:21:19.768Z,16.70
2022-10-21T12:23:55.568Z,16.70
2022-10-21T12:26:30.221Z,16.80
2022-10-21T12:29:03.621Z,16.80
2022-10-21T12:31:45.315Z,16.80
2022-10-21T12:34:14.664Z,16.80
2022-10-21T12:36:45.542Z,16.80
2022-10-21T12:39:19.228Z,16.90
2022-10-21T12:41:49.226Z,16.80
2022-10-21T12:44:35.124Z,16.90
2022-10-21T12:47:06.245Z,16.90
2022-10-21T12:49:36.369Z,16.90
2022-10-21T12:52:09.879Z,17.00
2022-10-21T12:54:50.632Z,17.00
2022-10-21T12:57:28.486Z,17.00
2022-10-21T13:00:37.797Z,17.00
2022-10-21T13:03:07.821Z,17.10
2022-10-21T13:06:01.935Z,17.10
2022-10-21T13:08:38.067Z,17.10
2022-10-21T13:11:23.788Z,17.10
2022-10-21T13:14:25.059Z,17.10
2022-10-21T13:16:54.345Z,17.10
2022-10-21T13:19:35.554Z,17.10
2022-10-21T13:22:11.009Z,17.10
2022-10-21T13:24:39.695Z,17.10
2022-10-21T13:27:27.338Z,17.10
2022-10-21T13:29:55.921Z,17.10
2022-10-21T13:32:28.231Z,17.10
2022-10-21T13:35:00.285Z,17.10
2022-10-21T13:37:31.017Z,17.10
2022-10-21T13:40:01.730Z,17.10
2022-10-21T13:42:36.218Z,17.20
2022-10-21T13:45:15.524Z,17.20
2022-10-21T13:47:44.680Z,17.20
2022-10-21T13:50:18.366Z,17.30
2022-10-21T13:52:46.473Z,17.30
2022-10-21T13:55:21.017Z,17.40
2022-10-21T13:57:50.866Z,17.40
2022-10-21T14:00:22.957Z,17.50
2022-10-21T14:02:54.578Z,17.50
2022-10-21T14:05:35.923Z,17.50
2022-10-21T14:08:05.715Z,17.60
2022-10-21T14:10:33.663Z,17.60
2022-10-21T14:13:01.537Z,17.60
2022-10-21T14:15:38.861Z,17.70
2022-10-21T14:18:08.498Z,17.80
2022-10-21T14:20:38.904Z,18.00
2022-10-21T14:23:09.779Z,18.10
2022-10-21T14:25:37.857Z,18.20
2022-10-21T14:28:06.605Z,18.20
2022-10-21T14:30:37.054Z,18.30
2022-10-21T14:33:08.477Z,18.30
2022-10-21T14:35:36.382Z,18.30
2022-10-21T14:38:24.969Z,18.30
2022-10-21T14:41:00.100Z,18.30
2022-10-21T14:43:35.602Z,18.20
2022-10-21T14:46:06.956Z,18.20
2022-10-21T14:48:38.600Z,18.20
2022-10-21T14:51:09.494Z,18.20
2022-10-21T14:53:43.878Z,18.20
2022-10-21T14:56:17.642Z,18.20
2022-10-21T14:58:46.987Z,18.10
2022-10-21T15:01:19.151Z,18.10
2022-10-21T15:03:50.974Z,18.10
2022-10-21T15:06:20.951Z,18.00
2022-10-21T15:09:06.739Z,18.00
2022-10-21T15:11:42.624Z,18.00
2022-10-21T15:14:32.929Z,18.00
2022-10-21T15:17:03.377Z,17.90
2022-10-21T15:19:44.990Z,17.90
2022-10-21T15:22:24.468Z,17.90
2022-10-21T15:24:53.770Z,17.80
2022-10-21T15:27:28.756Z,17.80
2022-10-21T15:29:56.736Z,17.80
2022-10-21T15:32:29.537Z,17.80
2022-10-21T15:34:59.912Z,17.80
2022-10-21T15:37:27.730Z,17.80
2022-10-21T15:39:55.548Z,17.80
2022-10-21T15:42:23.889Z,17.70
2022-10-21T15:44:52.103Z,17.70
2022-10-21T15:47:20.671Z,17.70
2022-10-21T15:49:49.331Z,17.60
2022-10-21T15:52:18.644Z,17.60
2022-10-21T15:54:46.441Z,17.60
2022-10-21T15:57:18.472Z,17.60
2022-10-21T15:59:46.854Z,17.50
2022-10-21T16:02:17.713Z,17.50
2022-10-21T16:04:45.984Z,17.40
2022-10-21T16:07:21.262Z,17.40
2022-10-21T16:09:49.137Z,17.40
2022-10-21T16:12:18.920Z,17.30
2022-10-21T16:14:46.761Z,17.30
2022-10-21T16:17:15.292Z,17.30
2022-10-21T16:19:43.475Z,17.30
2022-10-21T16:22:15.399Z,17.20
2022-10-21T16:24:44.736Z,17.20
2022-10-21T16:27:13.887Z,17.10
2022-10-21T16:29:42.285Z,17.10
2022-10-21T16:32:12.559Z,17.00
2022-10-21T16:34:40.569Z,16.90
2022-10-21T16:37:22.152Z,16.90
2022-10-21T16:39:51.425Z,16.80
2022-10-21T16:42:19.529Z,16.80
2022-10-21T16:44:48.104Z,16.70
2022-10-21T16:47:19.001Z,16.60
2022-10-21T16:49:48.176Z,16.60
2022-10-21T16:52:17.176Z,16.50
2022-10-21T16:54:48.670Z,16.50
2022-10-21T16:57:18.452Z,16.40
2022-10-21T16:59:46.326Z,16.40
2022-10-21T17:02:17.077Z,16.40
2022-10-21T17:04:45.506Z,16.30
2022-10-21T17:07:13.716Z,16.30
2022-10-21T17:09:41.553Z,16.30
2022-10-21T17:12:11.800Z,16.20
2022-10-21T17:14:40.974Z,16.20
2022-10-21T17:17:08.858Z,16.10
2022-10-21T17:19:36.799Z,16.10
2022-10-21T17:22:04.768Z,16.10
2022-10-21T17:24:32.923Z,16.00
2022-10-21T17:27:00.826Z,16.00
2022-10-21T17:29:28.727Z,15.90
2022-10-21T17:31:58.035Z,15.90
2022-10-21T17:34:28.373Z,15.90
2022-10-21T17:36:56.641Z,15.90
2022-10-21T17:39:25.065Z,15.90
2022-10-21T17:41:53.633Z,15.90
2022-10-21T17:44:22.182Z,15.90
2022-10-21T17:46:54.303Z,15.90
2022-10-21T17:49:24.941Z,15.90
2022-10-21T17:51:53.185Z,15.90
2022-10-21T17:54:25.947Z,15.90
2022-10-21T17:56:57.070Z,15.90
2022-10-21T17:59:25.133Z,15.90
2022-10-21T18:01:53.184Z,15.80
2022-10-21T18:04:21.142Z,15.80
2022-10-21T18:06:50.410Z,15.80
2022-10-21T18:09:18.537Z,15.80
2022-10-21T18:11:46.479Z,15.80
2022-10-21T18:14:15.168Z,15.80
2022-10-21T18:16:43.149Z,15.80
2022-10-21T18:19:12.083Z,15.80
2022-10-21T18:21:40.205Z,15.80
2022-10-21T18:24:12.455Z,15.90
2022-10-21T18:26:40.959Z,15.90
2022-10-21T18:29:08.958Z,15.90
2022-10-21T18:31:38.177Z,15.90
2022-10-21T18:34:09.084Z,15.90
2022-10-21T18:36:37.121Z,15.90
2022-10-21T18:39:06.411Z,15.90
2022-10-21T18:41:36.194Z,15.90
2022-10-21T18:44:08.236Z,15.90
2022-10-21T18:46:36.754Z,15.90
2022-10-21T18:49:06.394Z,15.90
2022-10-21T18:51:34.290Z,15.90
2022-10-21T18:54:02.146Z,15.90
2022-10-21T18:56:29.990Z,15.90
2022-10-21T18:58:59.888Z,15.80
2022-10-21T19:01:27.916Z,15.80
2022-10-21T19:03:56.657Z,15.80
2022-10-21T19:06:33.384Z,15.80
2022-10-21T19:09:02.188Z,15.70
2022-10-21T19:11:30.466Z,15.70
2022-10-21T19:13:59.727Z,15.70
2022-10-21T19:16:27.988Z,15.70
2022-10-21T19:18:55.855Z,15.70
2022-10-21T19:21:24.696Z,15.60
2022-10-21T19:23:53.553Z,15.60
2022-10-21T19:26:23.205Z,15.60
2022-10-21T19:28:51.668Z,15.60
2022-10-21T19:31:21.534Z,15.60
2022-10-21T19:33:49.341Z,15.60
2022-10-21T19:36:17.190Z,15.60
2022-10-21T19:38:45.163Z,15.60
2022-10-21T19:41:15.925Z,15.70
2022-10-21T19:43:44.055Z,15.70
2022-10-21T19:46:15.396Z,15.70
2022-10-21T19:48:44.645Z,15.70
2022-10-21T19:51:15.364Z,15.70
2022-10-21T19:53:44.962Z,15.60
2022-10-21T19:56:14.215Z,15.70
2022-10-21T19:58:43.575Z,15.60
2022-10-21T20:01:14.097Z,15.60
2022-10-21T20:03:45.522Z,15.60
2022-10-21T20:06:15.721Z,15.60
2022-10-21T20:08:44.615Z,15.60
2022-10-21T20:11:14.553Z,15.60
2022-10-21T20:13:43.323Z,15.50
2022-10-21T20:16:16.225Z,15.50
2022-10-21T20:18:45.485Z,15.50
2022-10-21T20:21:13.800Z,15.40
2022-10-21T20:23:41.812Z,15.40
2022-10-21T20:26:10.120Z,15.40
2022-10-21T20:28:38.932Z,15.40
2022-10-21T20:31:08.771Z,15.40
2022-10-21T20:33:40.610Z,15.40
2022-10-21T20:36:12.597Z,15.30
2022-10-21T20:38:40.556Z,15.30
2022-10-21T20:41:10.015Z,15.30
2022-10-21T20:43:39.343Z,15.30
2022-10-21T20:46:08.905Z,15.20
2022-10-21T20:48:37.877Z,15.20
2022-10-21T20:51:07.724Z,15.20
2022-10-21T20:53:37.071Z,15.20
2022-10-21T20:56:05.287Z,15.20
2022-10-21T20:58:34.875Z,15.20
2022-10-21T21:01:08.051Z,15.10
2022-10-21T21:03:37.891Z,15.10
2022-10-21T21:06:06.134Z,15.10
2022-10-21T21:08:36.482Z,15.10
2022-10-21T21:11:06.080Z,15.10
2022-10-21T21:13:34.496Z,15.10
2022-10-21T21:16:07.383Z,15.10
2022-10-21T21:18:35.547Z,15.10
2022-10-21T21:21:04.762Z,15.00
2022-10-21T21:23:32.840Z,15.00
2022-10-21T21:26:07.702Z,15.00
2022-10-21T21:28:36.700Z,15.00
2022-10-21T21:31:05.202Z,15.00
2022-10-21T21:33:33.727Z,15.00
2022-10-21T21:36:02.833Z,15.00
2022-10-21T21:38:31.434Z,15.00
2022-10-21T21:40:59.614Z,15.00
2022-10-21T21:43:29.927Z,15.00
2022-10-21T21:45:57.995Z,15.00
2022-10-21T21:48:26.361Z,14.90
2022-10-21T21:51:01.498Z,14.90
2022-10-21T21:53:29.389Z,14.90
2022-10-21T21:56:02.208Z,14.90
2022-10-21T21:58:32.461Z,14.90
2022-10-21T22:01:09.964Z,14.90
2022-10-21T22:03:38.038Z,14.90
2022-10-21T22:06:06.451Z,14.80
2022-10-21T22:08:35.006Z,14.80
2022-10-21T22:11:07.918Z,14.80
2022-10-21T22:13:37.525Z,14.80
2022-10-21T22:16:06.085Z,14.80
2022-10-21T22:18:34.059Z,14.80
2022-10-21T22:21:02.954Z,14.80
2022-10-21T22:23:30.749Z,14.80
2022-10-21T22:25:59.031Z,14.80
2022-10-21T22:28:26.999Z,14.80
2022-10-21T22:31:00.743Z,14.80
2022-10-21T22:33:29.088Z,14.80
2022-10-21T22:35:57.305Z,14.80
2022-10-21T22:38:25.391Z,14.80
2022-10-21T22:40:54.541Z,14.80
2022-10-21T22:43:23.447Z,14.70
2022-10-21T22:45:51.417Z,14.80
2022-10-21T22:48:20.809Z,14.70
2022-10-21T22:50:48.793Z,14.70
2022-10-21T22:53:17.095Z,14.70
2022-10-21T22:55:44.941Z,14.70
2022-10-21T22:58:17.080Z,14.70
2022-10-21T23:00:44.963Z,14.70
2022-10-21T23:03:12.988Z,14.70
2022-10-21T23:05:42.568Z,14.70
2022-10-21T23:08:10.632Z,14.70
2022-10-21T23:10:38.594Z,14.70
2022-10-21T23:13:06.869Z,14.70
2022-10-21T23:15:35.407Z,14.70
2022-10-21T23:18:03.356Z,14.70
2022-10-21T23:20:31.510Z,14.80
2022-10-21T23:23:00.748Z,14.70
2022-10-21T23:25:29.098Z,14.80
2022-10-21T23:27:57.198Z,14.80
2022-10-21T23:30:25.441Z,14.70
2022-10-21T23:32:53.272Z,14.70
2022-10-21T23:35:21.354Z,14.70
2022-10-21T23:37:49.203Z,14.70
2022-10-21T23:40:18.774Z,14.70
2022-10-21T23:42:46.631Z,14.60
2022-10-21T23:45:14.460Z,14.60
2022-10-21T23:47:42.547Z,14.60
2022-10-21T23:50:11.718Z,14.60
2022-10-21T23:52:40.142Z,14.60
2022-10-21T23:55:09.049Z,14.60
2022-10-21T23:57:38.647Z,14.60
